createdAt,value
2022-09-17T00:00:57.395Z,0.00
2022-09-17T00:01:57.391Z,0.00
2022-09-17T00:02:57.449Z,0.00
2022-09-17T00:03:57.588Z,0.00
2022-09-17T00:04:57.350Z,0.00
2022-09-17T00:05:57.328Z,0.00
2022-09-17T00:06:57.333Z,0.00
2022-09-17T00:07:57.316Z,0.00
2022-09-17T00:08:57.306Z,0.00
2022-09-17T00:09:57.286Z,0.00
2022-09-17T00:10:57.279Z,0.00
2022-09-17T00:11:57.274Z,0.00
2022-09-17T00:12:57.249Z,0.00
2022-09-17T00:13:57.332Z,0.00
2022-09-17T00:14:57.256Z,0.00
2022-09-17T00:15:57.250Z,0.00
2022-09-17T00:17:01.689Z,0.00
2022-09-17T00:17:57.197Z,0.00
2022-09-17T00:18:57.181Z,0.00
2022-09-17T00:19:57.206Z,0.00
2022-09-17T00:20:57.167Z,0.00
2022-09-17T00:21:57.201Z,0.00
2022-09-17T00:22:57.131Z,0.00
2022-09-17T00:23:57.120Z,0.00
2022-09-17T00:24:57.148Z,0.00
2022-09-17T00:25:57.139Z,0.00
2022-09-17T00:26:57.079Z,0.00
2022-09-17T00:27:57.078Z,0.00
2022-09-17T00:28:57.064Z,0.00
2022-09-17T00:29:57.073Z,0.00
2022-09-17T00:30:57.113Z,0.00
2022-09-17T00:31:57.022Z,0.00
2022-09-17T00:32:57.029Z,0.00
2022-09-17T00:33:57.008Z,0.00
2022-09-17T00:34:56.998Z,0.00
2022-09-17T00:35:57.027Z,0.00
2022-09-17T00:36:56.979Z,0.00
2022-09-17T00:37:56.956Z,0.00
2022-09-17T00:38:56.948Z,0.00
2022-09-17T00:39:57.048Z,0.00
2022-09-17T00:40:56.939Z,0.00
2022-09-17T00:41:56.932Z,0.00
2022-09-17T00:42:56.906Z,0.00
2022-09-17T00:43:56.882Z,0.00
2022-09-17T00:44:56.905Z,0.00
2022-09-17T00:45:56.914Z,0.00
2022-09-17T00:46:56.939Z,0.00
2022-09-17T00:47:56.849Z,0.00
2022-09-17T00:48:56.858Z,0.00
2022-09-17T00:49:56.813Z,0.00
2022-09-17T00:50:56.840Z,0.00
2022-09-17T00:52:00.264Z,0.00
2022-09-17T00:52:56.790Z,0.00
2022-09-17T00:53:56.801Z,0.00
2022-09-17T00:54:56.825Z,0.00
2022-09-17T00:55:56.756Z,0.00
2022-09-17T00:56:56.831Z,0.00
2022-09-17T00:57:56.733Z,0.00
2022-09-17T00:58:56.731Z,0.00
2022-09-17T00:59:56.707Z,0.00
2022-09-17T01:00:56.762Z,0.00
2022-09-17T01:01:56.774Z,0.00
2022-09-17T01:02:56.679Z,0.00
2022-09-17T01:03:56.675Z,0.00
2022-09-17T01:04:56.656Z,0.00
2022-09-17T01:05:56.637Z,0.00
2022-09-17T01:06:56.673Z,0.00
2022-09-17T01:07:56.616Z,0.00
2022-09-17T01:08:56.611Z,0.00
2022-09-17T01:09:56.582Z,0.00
2022-09-17T01:10:56.575Z,0.00
2022-09-17T01:11:56.564Z,0.00
2022-09-17T01:12:56.601Z,0.00
2022-09-17T01:13:56.549Z,0.00
2022-09-17T01:14:56.548Z,0.00
2022-09-17T01:15:56.692Z,0.00
2022-09-17T01:16:56.525Z,0.00
2022-09-17T01:17:56.541Z,0.00
2022-09-17T01:18:56.484Z,0.00
2022-09-17T01:19:56.472Z,0.00
2022-09-17T01:20:56.507Z,0.00
2022-09-17T01:21:56.461Z,0.00
2022-09-17T01:22:56.501Z,0.00
2022-09-17T01:23:56.428Z,0.00
2022-09-17T01:24:56.426Z,0.00
2022-09-17T01:25:56.407Z,0.00
2022-09-17T01:26:56.404Z,0.00
2022-09-17T01:27:56.401Z,0.00
2022-09-17T01:28:56.397Z,0.00
2022-09-17T01:29:56.396Z,0.00
2022-09-17T01:30:56.360Z,0.00
2022-09-17T01:31:56.352Z,0.00
2022-09-17T01:32:56.346Z,0.00
2022-09-17T01:33:56.349Z,0.00
2022-09-17T01:34:56.305Z,0.00
2022-09-17T01:35:56.303Z,0.00
2022-09-17T01:36:56.283Z,0.00
2022-09-17T01:37:56.272Z,0.00
2022-09-17T01:38:56.323Z,0.00
2022-09-17T01:39:56.314Z,0.00
2022-09-17T01:40:56.239Z,0.00
2022-09-17T01:41:56.250Z,0.00
2022-09-17T01:42:56.220Z,0.00
2022-09-17T01:43:56.249Z,0.00
2022-09-17T01:44:56.191Z,0.00
2022-09-17T01:45:56.182Z,0.00
2022-09-17T01:46:56.243Z,0.00
2022-09-17T01:47:56.162Z,0.00
2022-09-17T01:48:56.139Z,0.00
2022-09-17T01:49:56.155Z,0.00
2022-09-17T01:50:56.130Z,0.00
2022-09-17T01:51:56.103Z,0.00
2022-09-17T01:52:56.102Z,0.00
2022-09-17T01:53:56.102Z,0.00
2022-09-17T01:54:56.110Z,0.00
2022-09-17T01:55:56.064Z,0.00
2022-09-17T01:56:56.077Z,0.00
2022-09-17T01:57:56.056Z,0.00
2022-09-17T01:58:56.033Z,0.00
2022-09-17T01:59:56.044Z,0.00
2022-09-17T02:00:56.084Z,0.00
2022-09-17T02:01:56.083Z,0.00
2022-09-17T02:02:55.989Z,0.00
2022-09-17T02:03:56.037Z,0.00
2022-09-17T02:04:55.984Z,0.00
2022-09-17T02:05:55.976Z,0.00
2022-09-17T02:06:55.952Z,0.00
2022-09-17T02:07:55.924Z,0.00
2022-09-17T02:08:55.937Z,0.00
2022-09-17T02:09:55.909Z,0.00
2022-09-17T02:10:55.914Z,0.00
2022-09-17T02:11:55.881Z,0.00
2022-09-17T02:12:55.882Z,0.00
2022-09-17T02:13:55.857Z,0.00
2022-09-17T02:14:55.866Z,0.00
2022-09-17T02:15:55.923Z,0.00
2022-09-17T02:16:55.861Z,0.00
2022-09-17T02:17:55.808Z,0.00
2022-09-17T02:18:55.837Z,0.00
2022-09-17T02:19:55.832Z,0.00
2022-09-17T02:20:55.817Z,0.00
2022-09-17T02:21:55.798Z,0.00
2022-09-17T02:22:55.830Z,0.00
2022-09-17T02:23:55.751Z,0.00
2022-09-17T02:24:55.762Z,0.00
2022-09-17T02:25:55.731Z,0.00
2022-09-17T02:26:55.739Z,0.00
2022-09-17T02:27:55.719Z,0.00
2022-09-17T02:28:55.689Z,0.00
2022-09-17T02:29:55.684Z,0.00
2022-09-17T02:30:55.723Z,0.00
2022-09-17T02:31:55.730Z,0.00
2022-09-17T02:32:55.656Z,0.00
2022-09-17T02:33:55.656Z,0.00
2022-09-17T02:34:55.617Z,0.00
2022-09-17T02:35:55.654Z,0.00
2022-09-17T02:36:55.640Z,0.00
2022-09-17T02:37:55.609Z,0.00
2022-09-17T02:38:55.601Z,0.00
2022-09-17T02:39:55.618Z,0.00
2022-09-17T02:40:55.570Z,0.00
2022-09-17T02:41:55.565Z,0.00
2022-09-17T02:42:55.565Z,0.00
2022-09-17T02:43:55.520Z,0.00
2022-09-17T02:44:55.554Z,0.00
2022-09-17T02:45:55.515Z,0.00
2022-09-17T02:46:55.580Z,0.00
2022-09-17T02:47:55.510Z,0.00
2022-09-17T02:48:55.470Z,0.00
2022-09-17T02:49:55.464Z,0.00
2022-09-17T02:50:55.445Z,0.00
2022-09-17T02:51:55.457Z,0.00
2022-09-17T02:52:55.449Z,0.00
2022-09-17T02:53:55.406Z,0.00
2022-09-17T02:54:55.430Z,0.00
2022-09-17T02:55:55.391Z,0.00
2022-09-17T02:56:55.380Z,0.00
2022-09-17T02:57:55.403Z,0.00
2022-09-17T02:58:55.407Z,0.00
2022-09-17T02:59:55.352Z,0.00
2022-09-17T03:00:55.407Z,0.00
2022-09-17T03:01:55.387Z,0.00
2022-09-17T03:02:55.300Z,0.00
2022-09-17T03:03:55.326Z,0.00
2022-09-17T03:04:55.296Z,0.00
2022-09-17T03:05:55.281Z,0.00
2022-09-17T03:06:55.296Z,0.00
2022-09-17T03:07:55.258Z,0.00
2022-09-17T03:08:55.262Z,0.00
2022-09-17T03:09:55.234Z,0.00
2022-09-17T03:10:55.242Z,0.00
2022-09-17T03:11:55.218Z,0.00
2022-09-17T03:12:55.194Z,0.00
2022-09-17T03:13:55.210Z,0.00
2022-09-17T03:14:55.177Z,0.00
2022-09-17T03:15:55.199Z,0.00
2022-09-17T03:16:55.183Z,0.00
2022-09-17T03:17:55.136Z,0.00
2022-09-17T03:18:55.138Z,0.00
2022-09-17T03:19:55.130Z,0.00
2022-09-17T03:20:55.133Z,0.00
2022-09-17T03:21:55.094Z,0.00
2022-09-17T03:22:55.088Z,0.00
2022-09-17T03:23:55.083Z,0.00
2022-09-17T03:24:55.077Z,0.00
2022-09-17T03:25:55.043Z,0.00
2022-09-17T03:26:55.051Z,0.00
2022-09-17T03:27:55.023Z,0.00
2022-09-17T03:28:55.022Z,0.00
2022-09-17T03:29:55.021Z,0.00
2022-09-17T03:30:55.011Z,0.00
2022-09-17T03:31:54.969Z,0.00
2022-09-17T03:32:54.972Z,0.00
2022-09-17T03:33:54.947Z,0.00
2022-09-17T03:34:54.954Z,0.00
2022-09-17T03:35:54.954Z,0.00
2022-09-17T03:36:54.924Z,0.00
2022-09-17T03:37:54.918Z,0.00
2022-09-17T03:38:54.889Z,0.00
2022-09-17T03:39:55.020Z,0.00
2022-09-17T03:40:54.890Z,0.00
2022-09-17T03:41:54.863Z,0.00
2022-09-17T03:42:54.847Z,0.00
2022-09-17T03:43:54.843Z,0.00
2022-09-17T03:44:54.843Z,0.00
2022-09-17T03:45:54.864Z,0.00
2022-09-17T03:46:54.905Z,0.00
2022-09-17T03:47:54.805Z,0.00
2022-09-17T03:48:54.799Z,0.00
2022-09-17T03:49:54.764Z,0.00
2022-09-17T03:50:54.823Z,0.00
2022-09-17T03:51:54.781Z,0.00
2022-09-17T03:52:54.745Z,0.00
2022-09-17T03:53:54.724Z,0.00
2022-09-17T03:54:54.741Z,0.00
2022-09-17T03:55:54.715Z,0.00
2022-09-17T03:56:54.713Z,0.00
2022-09-17T03:57:54.678Z,0.00
2022-09-17T03:58:54.678Z,0.00
2022-09-17T03:59:54.666Z,0.00
2022-09-17T04:00:54.646Z,0.00
2022-09-17T04:01:54.892Z,0.00
2022-09-17T04:02:54.693Z,0.00
2022-09-17T04:03:54.672Z,0.00
2022-09-17T04:04:54.601Z,0.00
2022-09-17T04:05:54.595Z,0.00
2022-09-17T04:06:54.611Z,0.00
2022-09-17T04:07:54.572Z,0.00
2022-09-17T04:08:54.588Z,0.00
2022-09-17T04:09:54.580Z,0.00
2022-09-17T04:10:54.537Z,0.00
2022-09-17T04:11:54.525Z,0.00
2022-09-17T04:12:54.529Z,0.00
2022-09-17T04:13:54.503Z,0.00
2022-09-17T04:14:54.497Z,0.00
2022-09-17T04:15:54.516Z,0.00
2022-09-17T04:16:54.461Z,0.00
2022-09-17T04:17:54.496Z,0.00
2022-09-17T04:18:54.455Z,0.00
2022-09-17T04:19:54.441Z,0.00
2022-09-17T04:20:54.458Z,0.00
2022-09-17T04:21:54.437Z,0.00
2022-09-17T04:22:54.442Z,0.00
2022-09-17T04:23:54.459Z,0.00
2022-09-17T04:24:54.390Z,0.00
2022-09-17T04:25:54.371Z,0.00
2022-09-17T04:26:54.350Z,0.00
2022-09-17T04:27:54.364Z,0.00
2022-09-17T04:28:54.338Z,0.00
2022-09-17T04:29:54.322Z,0.00
2022-09-17T04:30:54.366Z,0.00
2022-09-17T04:31:54.293Z,0.00
2022-09-17T04:32:54.326Z,0.00
2022-09-17T04:33:54.298Z,0.00
2022-09-17T04:34:54.280Z,0.00
2022-09-17T04:35:54.276Z,0.00
2022-09-17T04:36:54.245Z,0.00
2022-09-17T04:37:54.266Z,0.00
2022-09-17T04:38:54.242Z,0.00
2022-09-17T04:39:54.217Z,0.00
2022-09-17T04:40:54.228Z,4.00
2022-09-17T04:41:54.199Z,0.00
2022-09-17T04:42:54.175Z,0.00
2022-09-17T04:43:54.196Z,4.00
2022-09-17T04:44:54.161Z,0.00
2022-09-17T04:45:54.147Z,4.00
2022-09-17T04:46:54.169Z,4.00
2022-09-17T04:47:54.110Z,4.00
2022-09-17T04:48:54.122Z,4.00
2022-09-17T04:49:54.126Z,4.00
2022-09-17T04:50:54.082Z,8.00
2022-09-17T04:51:54.069Z,8.00
2022-09-17T04:52:54.100Z,8.00
2022-09-17T04:53:54.073Z,8.00
2022-09-17T04:54:54.026Z,8.00
2022-09-17T04:55:54.030Z,12.00
2022-09-17T04:56:54.024Z,12.00
2022-09-17T04:57:54.012Z,12.00
2022-09-17T04:58:53.984Z,16.00
2022-09-17T04:59:54.003Z,16.00
2022-09-17T05:00:54.049Z,20.00
2022-09-17T05:01:54.069Z,28.00
2022-09-17T05:02:53.950Z,28.00
2022-09-17T05:03:53.933Z,36.00
2022-09-17T05:04:53.974Z,36.00
2022-09-17T05:05:53.916Z,44.00
2022-09-17T05:06:53.908Z,48.00
2022-09-17T05:07:53.883Z,52.00
2022-09-17T05:08:53.892Z,56.00
2022-09-17T05:09:53.893Z,60.00
2022-09-17T05:10:53.854Z,64.00
2022-09-17T05:11:53.846Z,76.00
2022-09-17T05:12:53.840Z,84.00
2022-09-17T05:13:53.837Z,88.00
2022-09-17T05:14:53.814Z,100.00
2022-09-17T05:15:53.939Z,100.00
2022-09-17T05:16:53.795Z,108.00
2022-09-17T05:17:53.800Z,120.00
2022-09-17T05:18:53.798Z,124.00
2022-09-17T05:19:53.758Z,132.00
2022-09-17T05:20:53.770Z,148.00
2022-09-17T05:21:53.729Z,148.00
2022-09-17T05:22:53.724Z,152.00
2022-09-17T05:23:53.710Z,164.00
2022-09-17T05:24:53.736Z,164.00
2022-09-17T05:25:53.719Z,184.00
2022-09-17T05:26:53.666Z,176.00
2022-09-17T05:27:53.659Z,188.00
2022-09-17T05:28:53.638Z,204.00
2022-09-17T05:29:53.646Z,224.00
2022-09-17T05:30:53.682Z,220.00
2022-09-17T05:31:53.640Z,240.00
2022-09-17T05:32:53.604Z,240.00
2022-09-17T05:33:53.607Z,248.00
2022-09-17T05:34:53.584Z,260.00
2022-09-17T05:35:53.581Z,260.00
2022-09-17T05:36:53.555Z,272.00
2022-09-17T05:37:53.576Z,280.00
2022-09-17T05:38:53.544Z,292.00
2022-09-17T05:39:53.568Z,292.00
2022-09-17T05:40:53.572Z,296.00
2022-09-17T05:41:53.512Z,316.00
2022-09-17T05:42:53.503Z,332.00
2022-09-17T05:43:53.481Z,348.00
2022-09-17T05:44:53.490Z,344.00
2022-09-17T05:45:53.462Z,344.00
2022-09-17T05:46:53.547Z,352.00
2022-09-17T05:47:53.437Z,380.00
2022-09-17T05:48:53.437Z,376.00
2022-09-17T05:49:53.410Z,376.00
2022-09-17T05:50:53.406Z,384.00
2022-09-17T05:51:53.435Z,392.00
2022-09-17T05:52:53.396Z,400.00
2022-09-17T05:53:53.372Z,396.00
2022-09-17T05:54:53.348Z,400.00
2022-09-17T05:55:53.330Z,396.00
2022-09-17T05:56:53.402Z,392.00
2022-09-17T05:57:53.322Z,404.00
2022-09-17T05:58:53.306Z,408.00
2022-09-17T05:59:53.317Z,444.00
2022-09-17T06:00:53.294Z,432.00
2022-09-17T06:01:53.338Z,420.00
2022-09-17T06:02:53.358Z,408.00
2022-09-17T06:03:53.250Z,440.00
2022-09-17T06:04:53.264Z,424.00
2022-09-17T06:05:53.271Z,444.00
2022-09-17T06:06:53.218Z,472.00
2022-09-17T06:07:53.242Z,436.00
2022-09-17T06:08:53.219Z,452.00
2022-09-17T06:09:53.179Z,428.00
2022-09-17T06:10:53.193Z,432.00
2022-09-17T06:11:53.169Z,448.00
2022-09-17T06:12:53.178Z,452.00
2022-09-17T06:13:53.163Z,460.00
2022-09-17T06:14:53.137Z,508.00
2022-09-17T06:15:53.219Z,508.00
2022-09-17T06:16:53.101Z,524.00
2022-09-17T06:17:53.110Z,520.00
2022-09-17T06:18:53.105Z,528.00
2022-09-17T06:19:53.061Z,552.00
2022-09-17T06:20:53.068Z,620.00
2022-09-17T06:21:53.059Z,636.00
2022-09-17T06:22:53.031Z,668.00
2022-09-17T06:23:53.035Z,684.00
2022-09-17T06:24:53.041Z,768.00
2022-09-17T06:25:53.000Z,872.00
2022-09-17T06:26:52.990Z,868.00
2022-09-17T06:27:53.011Z,992.00
2022-09-17T06:28:52.987Z,936.00
2022-09-17T06:29:52.968Z,940.00
2022-09-17T06:30:52.975Z,992.00
2022-09-17T06:31:53.015Z,992.00
2022-09-17T06:32:52.942Z,1032.00
2022-09-17T06:33:54.174Z,1076.00
2022-09-17T06:34:52.895Z,1096.00
2022-09-17T06:35:52.957Z,1056.00
2022-09-17T06:36:52.915Z,1172.00
2022-09-17T06:37:52.869Z,1164.00
2022-09-17T06:38:52.844Z,1164.00
2022-09-17T06:39:52.904Z,1184.00
2022-09-17T06:40:52.837Z,1204.00
2022-09-17T06:41:52.820Z,1248.00
2022-09-17T06:42:53.420Z,1300.00
2022-09-17T06:43:52.797Z,1248.00
2022-09-17T06:44:52.837Z,1280.00
2022-09-17T06:45:52.820Z,1332.00
2022-09-17T06:46:52.798Z,1360.00
2022-09-17T06:47:52.791Z,1376.00
2022-09-17T06:48:52.789Z,1436.00
2022-09-17T06:49:52.763Z,1404.00
2022-09-17T06:50:52.720Z,1460.00
2022-09-17T06:51:52.716Z,1404.00
2022-09-17T06:52:52.692Z,1536.00
2022-09-17T06:53:52.722Z,1556.00
2022-09-17T06:54:52.712Z,1632.00
2022-09-17T06:55:52.691Z,1772.00
2022-09-17T06:56:52.639Z,1880.00
2022-09-17T06:57:52.719Z,1772.00
2022-09-17T06:58:52.693Z,1592.00
2022-09-17T06:59:52.616Z,1280.00
2022-09-17T07:00:52.676Z,1044.00
2022-09-17T07:01:52.640Z,1032.00
2022-09-17T07:02:52.581Z,1016.00
2022-09-17T07:03:52.566Z,1028.00
2022-09-17T07:04:52.587Z,952.00
2022-09-17T07:05:52.565Z,1016.00
2022-09-17T07:06:52.582Z,980.00
2022-09-17T07:07:52.523Z,1012.00
2022-09-17T07:08:52.524Z,1160.00
2022-09-17T07:09:52.510Z,1020.00
2022-09-17T07:10:52.522Z,1380.00
2022-09-17T07:11:52.474Z,1116.00
2022-09-17T07:12:52.471Z,1160.00
2022-09-17T07:13:52.479Z,1344.00
2022-09-17T07:14:52.435Z,1192.00
2022-09-17T07:15:52.587Z,1376.00
2022-09-17T07:16:52.454Z,1200.00
2022-09-17T07:17:52.411Z,2040.00
2022-09-17T07:18:52.399Z,1876.00
2022-09-17T07:19:52.387Z,1432.00
2022-09-17T07:20:52.376Z,1056.00
2022-09-17T07:21:52.395Z,980.00
2022-09-17T07:22:52.373Z,1036.00
2022-09-17T07:23:52.347Z,1132.00
2022-09-17T07:24:52.336Z,1516.00
2022-09-17T07:25:52.323Z,1056.00
2022-09-17T07:26:52.352Z,1264.00
2022-09-17T07:27:52.305Z,1212.00
2022-09-17T07:28:52.280Z,1572.00
2022-09-17T07:29:52.267Z,1432.00
2022-09-17T07:30:52.329Z,1208.00
2022-09-17T07:31:52.300Z,1712.00
2022-09-17T07:32:52.312Z,1740.00
2022-09-17T07:33:52.224Z,1824.00
2022-09-17T07:34:52.212Z,1724.00
2022-09-17T07:35:52.288Z,1936.00
2022-09-17T07:36:52.194Z,1828.00
2022-09-17T07:37:52.210Z,1820.00
2022-09-17T07:38:52.165Z,1820.00
2022-09-17T07:39:52.213Z,1872.00
2022-09-17T07:40:52.140Z,2056.00
2022-09-17T07:41:52.140Z,1904.00
2022-09-17T07:42:52.191Z,1912.00
2022-09-17T07:43:52.113Z,1932.00
2022-09-17T07:44:52.134Z,1928.00
2022-09-17T07:45:52.094Z,1996.00
2022-09-17T07:46:52.117Z,1816.00
2022-09-17T07:47:52.091Z,2156.00
2022-09-17T07:48:52.068Z,1796.00
2022-09-17T07:49:52.060Z,1912.00
2022-09-17T07:50:52.076Z,1048.00
2022-09-17T07:51:52.018Z,2144.00
2022-09-17T07:52:52.034Z,1964.00
2022-09-17T07:53:52.022Z,1916.00
2022-09-17T07:54:52.016Z,1944.00
2022-09-17T07:55:52.015Z,1996.00
2022-09-17T07:56:51.984Z,2048.00
2022-09-17T07:57:51.959Z,1980.00
2022-09-17T07:58:51.962Z,1972.00
2022-09-17T07:59:51.962Z,2012.00
2022-09-17T08:00:51.966Z,2056.00
2022-09-17T08:01:52.010Z,2100.00
2022-09-17T08:02:52.071Z,2020.00
2022-09-17T08:03:51.890Z,2016.00
2022-09-17T08:04:51.909Z,2024.00
2022-09-17T08:05:51.866Z,2048.00
2022-09-17T08:06:51.865Z,1980.00
2022-09-17T08:07:51.843Z,2032.00
2022-09-17T08:08:51.824Z,2100.00
2022-09-17T08:09:51.845Z,2300.00
2022-09-17T08:10:51.811Z,2264.00
2022-09-17T08:11:55.589Z,2176.00
2022-09-17T08:12:51.778Z,2140.00
2022-09-17T08:13:51.774Z,2164.00
2022-09-17T08:14:51.771Z,2124.00
2022-09-17T08:15:51.779Z,2176.00
2022-09-17T08:16:51.801Z,2132.00
2022-09-17T08:17:51.720Z,2136.00
2022-09-17T08:18:51.734Z,2180.00
2022-09-17T08:19:51.701Z,2120.00
2022-09-17T08:20:51.734Z,2244.00
2022-09-17T08:21:51.692Z,2252.00
2022-09-17T08:22:51.660Z,2224.00
2022-09-17T08:23:51.660Z,2240.00
2022-09-17T08:24:51.725Z,2228.00
2022-09-17T08:25:51.642Z,2108.00
2022-09-17T08:26:51.630Z,2304.00
2022-09-17T08:27:51.608Z,2368.00
2022-09-17T08:28:51.593Z,2284.00
2022-09-17T08:29:51.594Z,2320.00
2022-09-17T08:30:51.675Z,2344.00
2022-09-17T08:31:51.667Z,2160.00
2022-09-17T08:32:51.577Z,2388.00
2022-09-17T08:33:51.560Z,2232.00
2022-09-17T08:34:51.517Z,2476.00
2022-09-17T08:35:51.523Z,2496.00
2022-09-17T08:36:51.530Z,2708.00
2022-09-17T08:37:51.505Z,2480.00
2022-09-17T08:38:51.474Z,2572.00
2022-09-17T08:39:51.510Z,2396.00
2022-09-17T08:40:51.455Z,2408.00
2022-09-17T08:41:51.502Z,2488.00
2022-09-17T08:42:51.433Z,2460.00
2022-09-17T08:43:51.438Z,2404.00
2022-09-17T08:44:52.371Z,1308.00
2022-09-17T08:45:51.405Z,1780.00
2022-09-17T08:46:51.509Z,2000.00
2022-09-17T08:47:51.404Z,2316.00
2022-09-17T08:48:51.374Z,2388.00
2022-09-17T08:49:51.378Z,2456.00
2022-09-17T08:50:51.369Z,1508.00
2022-09-17T08:51:51.345Z,1444.00
2022-09-17T08:52:51.359Z,3444.00
2022-09-17T08:53:51.322Z,3060.00
2022-09-17T08:54:51.323Z,3236.00
2022-09-17T08:55:51.282Z,3040.00
2022-09-17T08:56:51.284Z,1364.00
2022-09-17T08:57:51.280Z,2392.00
2022-09-17T08:58:51.272Z,2664.00
2022-09-17T08:59:51.259Z,2480.00
2022-09-17T09:00:51.260Z,2688.00
2022-09-17T09:01:51.378Z,3012.00
2022-09-17T09:02:51.253Z,3276.00
2022-09-17T09:03:51.237Z,3464.00
2022-09-17T09:04:51.187Z,1732.00
2022-09-17T09:05:51.202Z,3300.00
2022-09-17T09:06:51.202Z,3024.00
2022-09-17T09:07:51.191Z,1760.00
2022-09-17T09:08:51.164Z,1764.00
2022-09-17T09:09:51.155Z,1588.00
2022-09-17T09:10:51.129Z,2300.00
2022-09-17T09:11:51.116Z,1292.00
2022-09-17T09:12:51.099Z,1408.00
2022-09-17T09:13:51.170Z,1556.00
2022-09-17T09:14:51.222Z,2748.00
2022-09-17T09:15:51.136Z,1788.00
2022-09-17T09:16:51.092Z,3736.00
2022-09-17T09:17:51.165Z,3668.00
2022-09-17T09:18:51.019Z,3164.00
2022-09-17T09:19:51.018Z,2812.00
2022-09-17T09:20:51.010Z,2256.00
2022-09-17T09:21:51.015Z,2036.00
2022-09-17T09:22:51.052Z,1772.00
2022-09-17T09:23:51.011Z,1692.00
2022-09-17T09:24:50.973Z,1940.00
2022-09-17T09:25:50.959Z,2100.00
2022-09-17T09:26:54.193Z,1976.00
2022-09-17T09:27:50.984Z,1604.00
2022-09-17T09:28:50.962Z,1552.00
2022-09-17T09:29:50.998Z,1676.00
2022-09-17T09:30:50.914Z,1848.00
2022-09-17T09:31:50.911Z,2144.00
2022-09-17T09:32:50.910Z,3024.00
2022-09-17T09:33:50.880Z,3256.00
2022-09-17T09:34:50.861Z,1624.00
2022-09-17T09:35:50.873Z,2900.00
2022-09-17T09:36:50.842Z,1536.00
2022-09-17T09:37:50.823Z,3516.00
2022-09-17T09:38:50.821Z,2908.00
2022-09-17T09:39:50.831Z,1528.00
2022-09-17T09:40:50.787Z,3444.00
2022-09-17T09:41:50.764Z,3740.00
2022-09-17T09:42:50.762Z,3652.00
2022-09-17T09:44:03.757Z,3884.00
2022-09-17T09:44:50.773Z,3752.00
2022-09-17T09:45:50.746Z,2288.00
2022-09-17T09:46:51.024Z,3464.00
2022-09-17T09:47:50.708Z,3292.00
2022-09-17T09:48:50.710Z,1648.00
2022-09-17T09:49:50.709Z,1312.00
2022-09-17T09:51:07.152Z,1344.00
2022-09-17T09:51:50.658Z,1420.00
2022-09-17T09:52:50.658Z,1600.00
2022-09-17T09:53:50.731Z,1752.00
2022-09-17T09:54:50.677Z,1748.00
2022-09-17T09:55:50.603Z,3776.00
2022-09-17T09:56:50.648Z,3156.00
2022-09-17T09:57:50.603Z,2872.00
2022-09-17T09:58:50.602Z,2700.00
2022-09-17T09:59:50.589Z,4064.00
2022-09-17T10:00:50.590Z,2752.00
2022-09-17T10:01:50.666Z,3124.00
2022-09-17T10:02:50.570Z,3676.00
2022-09-17T10:03:50.556Z,2552.00
2022-09-17T10:04:53.469Z,3384.00
2022-09-17T10:05:50.534Z,2260.00
2022-09-17T10:06:50.494Z,2428.00
2022-09-17T10:07:50.470Z,3532.00
2022-09-17T10:08:50.468Z,2760.00
2022-09-17T10:09:50.453Z,4236.00
2022-09-17T10:10:50.470Z,1544.00
2022-09-17T10:11:50.508Z,1568.00
2022-09-17T10:12:50.418Z,1248.00
2022-09-17T10:13:50.475Z,664.00
2022-09-17T10:14:50.389Z,508.00
2022-09-17T10:15:50.434Z,404.00
2022-09-17T10:16:50.391Z,388.00
2022-09-17T10:17:50.376Z,452.00
2022-09-17T10:18:50.381Z,556.00
2022-09-17T10:19:50.378Z,540.00
2022-09-17T10:20:50.328Z,676.00
2022-09-17T10:21:50.331Z,636.00
2022-09-17T10:22:50.317Z,640.00
2022-09-17T10:23:50.295Z,620.00
2022-09-17T10:24:50.320Z,688.00
2022-09-17T10:25:50.288Z,768.00
2022-09-17T10:26:50.285Z,844.00
2022-09-17T10:27:50.270Z,2972.00
2022-09-17T10:28:50.242Z,3048.00
2022-09-17T10:29:50.247Z,3120.00
2022-09-17T10:30:50.208Z,3148.00
2022-09-17T10:31:50.245Z,3312.00
2022-09-17T10:32:50.227Z,3404.00
2022-09-17T10:33:50.167Z,3684.00
2022-09-17T10:34:50.228Z,2280.00
2022-09-17T10:35:50.178Z,1844.00
2022-09-17T10:36:50.158Z,1892.00
2022-09-17T10:37:50.157Z,2276.00
2022-09-17T10:38:50.125Z,3704.00
2022-09-17T10:39:50.186Z,2012.00
2022-09-17T10:40:50.184Z,2692.00
2022-09-17T10:41:50.086Z,2456.00
2022-09-17T10:42:50.109Z,1876.00
2022-09-17T10:43:50.049Z,1836.00
2022-09-17T10:44:50.074Z,1892.00
2022-09-17T10:45:50.070Z,3336.00
2022-09-17T10:46:50.090Z,2480.00
2022-09-17T10:47:50.014Z,3072.00
2022-09-17T10:48:50.050Z,4320.00
2022-09-17T10:49:49.982Z,4448.00
2022-09-17T10:50:49.990Z,4152.00
2022-09-17T10:51:49.996Z,4000.00
2022-09-17T10:52:49.966Z,4196.00
2022-09-17T10:53:49.964Z,2176.00
2022-09-17T10:54:49.949Z,1756.00
2022-09-17T10:55:49.940Z,1536.00
2022-09-17T10:56:49.908Z,1524.00
2022-09-17T10:57:49.929Z,1524.00
2022-09-17T10:58:49.926Z,1536.00
2022-09-17T10:59:49.867Z,3076.00
2022-09-17T11:00:49.959Z,3168.00
2022-09-17T11:01:50.001Z,3868.00
2022-09-17T11:02:49.952Z,3756.00
2022-09-17T11:03:49.890Z,3696.00
2022-09-17T11:04:49.815Z,3356.00
2022-09-17T11:05:49.800Z,3552.00
2022-09-17T11:06:49.820Z,3616.00
2022-09-17T11:07:49.786Z,3440.00
2022-09-17T11:08:49.767Z,1188.00
2022-09-17T11:09:49.805Z,3744.00
2022-09-17T11:10:49.750Z,3400.00
2022-09-17T11:11:49.734Z,3732.00
2022-09-17T11:12:49.735Z,4016.00
2022-09-17T11:13:49.717Z,3472.00
2022-09-17T11:14:49.743Z,3576.00
2022-09-17T11:15:52.906Z,3416.00
2022-09-17T11:16:49.738Z,3460.00
2022-09-17T11:17:49.721Z,3608.00
2022-09-17T11:18:49.702Z,3672.00
2022-09-17T11:19:49.692Z,3624.00
2022-09-17T11:20:49.663Z,4060.00
2022-09-17T11:21:49.613Z,4120.00
2022-09-17T11:22:49.653Z,4924.00
2022-09-17T11:23:49.593Z,4492.00
2022-09-17T11:24:49.592Z,4792.00
2022-09-17T11:25:49.661Z,4516.00
2022-09-17T11:26:49.590Z,4424.00
2022-09-17T11:27:49.545Z,4196.00
2022-09-17T11:28:49.570Z,3336.00
2022-09-17T11:29:49.527Z,3196.00
2022-09-17T11:30:49.543Z,3108.00
2022-09-17T11:31:49.558Z,4588.00
2022-09-17T11:32:49.502Z,4516.00
2022-09-17T11:33:49.494Z,4488.00
2022-09-17T11:34:49.481Z,3520.00
2022-09-17T11:35:49.496Z,4240.00
2022-09-17T11:36:49.443Z,4268.00
2022-09-17T11:37:49.456Z,4176.00
2022-09-17T11:38:49.504Z,4040.00
2022-09-17T11:39:49.639Z,3776.00
2022-09-17T11:40:49.414Z,3764.00
2022-09-17T11:41:49.413Z,4444.00
2022-09-17T11:42:49.380Z,3832.00
2022-09-17T11:43:49.398Z,3748.00
2022-09-17T11:44:49.396Z,3480.00
2022-09-17T11:45:49.354Z,3788.00
2022-09-17T11:46:49.424Z,3612.00
2022-09-17T11:47:49.332Z,3688.00
2022-09-17T11:48:49.314Z,4120.00
2022-09-17T11:49:49.307Z,4124.00
2022-09-17T11:50:49.285Z,4044.00
2022-09-17T11:51:49.339Z,4276.00
2022-09-17T11:52:49.525Z,4156.00
2022-09-17T11:53:49.319Z,4392.00
2022-09-17T11:54:49.247Z,5332.00
2022-09-17T11:55:49.237Z,5232.00
2022-09-17T11:56:49.243Z,4724.00
2022-09-17T11:57:49.219Z,3664.00
2022-09-17T11:58:49.197Z,2108.00
2022-09-17T11:59:49.227Z,2028.00
2022-09-17T12:00:49.252Z,2044.00
2022-09-17T12:01:49.225Z,2348.00
2022-09-17T12:02:49.219Z,2648.00
2022-09-17T12:03:49.143Z,3084.00
2022-09-17T12:04:49.158Z,5060.00
2022-09-17T12:05:49.122Z,3988.00
2022-09-17T12:06:49.113Z,3472.00
2022-09-17T12:07:49.114Z,2084.00
2022-09-17T12:08:49.127Z,5472.00
2022-09-17T12:09:49.079Z,4956.00
2022-09-17T12:10:49.093Z,4840.00
2022-09-17T12:11:49.047Z,4804.00
2022-09-17T12:12:50.609Z,4692.00
2022-09-17T12:13:49.025Z,2896.00
2022-09-17T12:14:49.020Z,2376.00
2022-09-17T12:15:53.192Z,2436.00
2022-09-17T12:16:49.038Z,4376.00
2022-09-17T12:17:48.971Z,2684.00
2022-09-17T12:18:48.988Z,2364.00
2022-09-17T12:19:48.966Z,3048.00
2022-09-17T12:20:48.973Z,2344.00
2022-09-17T12:21:48.925Z,2468.00
2022-09-17T12:22:48.932Z,1892.00
2022-09-17T12:23:48.998Z,1612.00
2022-09-17T12:24:48.934Z,1460.00
2022-09-17T12:25:48.931Z,1144.00
2022-09-17T12:26:48.870Z,996.00
2022-09-17T12:27:48.868Z,824.00
2022-09-17T12:28:48.880Z,764.00
2022-09-17T12:29:48.865Z,528.00
2022-09-17T12:30:48.824Z,548.00
2022-09-17T12:31:48.889Z,472.00
2022-09-17T12:32:48.825Z,432.00
2022-09-17T12:33:48.811Z,480.00
2022-09-17T12:34:48.849Z,428.00
2022-09-17T12:36:05.612Z,436.00
2022-09-17T12:36:48.783Z,460.00
2022-09-17T12:37:48.781Z,468.00